Dallas, Texas
Traffic Map
Current Weather Conditions
Dallas, Texas
Scattered Clouds
Scattered Clouds
70°
Feels Like: 70°
Wind Chill: 70° Ceiling: Unl
Heat Index: 70° Visibility: 10mi
Dew Point: 52° Wind: 16mph
Humidity: 53% Direction: 350° (N)
Pressure: 30.08in Gusts: 0mph
Raw Report DataKDAL 231753Z 35014KT 10SM SCT033 SCT250 21/11 A3008 RMK AO2 SLP181 T02110111 10217 20117 58006
Traffic Incident Summary
Active as of:
Severity:
Category:
InformationThere was an issue retrieving the traffic information for this location. Please try a different location or try again shortly.
Advertisements